Time;durP1;ratioP1;P1;durP2;ratioP2;P2;SDS_P1;SDS_P2;PMS_P1;PMS_P2;Temp;Humidity;BMP_temperature;BMP_pressure;BME280_temperature;BME280_humidity;BME280_pressure;Samples;Min_cycle;Max_cycle;Signal;HPM_P1;HPM_P2
2023/03/14 00:01:25;;;;;;;30.25;5.43;;;11.50;99.90;;;;;;5062333;28;20089;-74
2023/03/14 00:03:51;;;;;;;37.45;7.28;;;11.50;99.90;;;;;;5063944;28;20078;-74
2023/03/14 00:06:17;;;;;;;29.52;6.20;;;11.40;99.90;;;;;;5061701;28;20044;-75
2023/03/14 00:08:44;;;;;;;28.58;5.22;;;11.40;99.90;;;;;;5061196;28;20048;-74
2023/03/14 00:11:12;;;;;;;24.08;5.80;;;11.40;99.90;;;;;;5064018;28;20037;-73
2023/03/14 00:13:38;;;;;;;24.77;5.30;;;11.30;99.90;;;;;;5063950;28;20023;-74
2023/03/14 00:16:11;;;;;;;16.73;4.63;;;11.30;99.90;;;;;;5063859;28;20033;-75
2023/03/14 00:18:38;;;;;;;19.30;4.60;;;11.20;99.90;;;;;;5061965;28;20395;-75
2023/03/14 00:21:05;;;;;;;26.98;4.75;;;11.20;99.90;;;;;;5063573;28;20037;-74
2023/03/14 00:23:32;;;;;;;21.70;4.93;;;11.20;99.90;;;;;;5062933;28;20489;-73
2023/03/14 00:26:03;;;;;;;16.80;3.88;;;11.10;99.90;;;;;;5061810;28;20060;-74
2023/03/14 00:28:29;;;;;;;17.02;4.20;;;11.10;99.90;;;;;;5060730;28;20074;-75
2023/03/14 00:30:55;;;;;;;14.75;3.90;;;11.00;99.90;;;;;;5063173;28;20033;-74
2023/03/14 00:33:21;;;;;;;20.35;4.13;;;11.00;99.90;;;;;;5061883;28;20021;-76
2023/03/14 00:35:59;;;;;;;17.75;4.75;;;10.90;99.90;;;;;;5062193;28;20112;-74
2023/03/14 00:38:25;;;;;;;18.95;4.50;;;10.90;99.90;;;;;;5063372;28;20032;-74
2023/03/14 00:40:51;;;;;;;18.48;4.57;;;10.80;99.90;;;;;;5059638;28;20037;-71
2023/03/14 00:43:18;;;;;;;16.60;4.13;;;10.90;99.90;;;;;;5061847;28;20024;-75
2023/03/14 00:45:43;;;;;;;17.45;4.68;;;10.80;99.90;;;;;;5061821;28;20045;-73
2023/03/14 00:48:09;;;;;;;16.50;4.10;;;10.80;99.90;;;;;;5063358;28;20073;-74
2023/03/14 00:50:35;;;;;;;16.92;3.85;;;10.80;99.90;;;;;;5061783;28;20031;-73
2023/03/14 00:53:00;;;;;;;18.48;4.20;;;10.80;99.90;;;;;;5062939;28;20069;-73
2023/03/14 00:55:26;;;;;;;15.65;4.22;;;10.80;99.90;;;;;;5061579;28;20033;-72
2023/03/14 00:57:52;;;;;;;16.42;4.38;;;10.70;99.90;;;;;;5060999;28;20029;-76
2023/03/14 01:00:17;;;;;;;13.27;4.15;;;10.70;99.90;;;;;;5062675;28;20028;-74
2023/03/14 01:02:43;;;;;;;16.63;4.53;;;10.70;99.90;;;;;;5062725;28;20053;-74
2023/03/14 01:05:12;;;;;;;19.25;4.22;;;10.70;99.90;;;;;;5061632;28;20044;-74
2023/03/14 01:07:37;;;;;;;16.13;4.50;;;10.60;99.90;;;;;;5062728;28;20083;-73
2023/03/14 01:10:05;;;;;;;15.35;4.75;;;10.60;99.90;;;;;;5060013;28;20037;-75
2023/03/14 01:12:31;;;;;;;14.52;4.32;;;10.60;99.90;;;;;;5061208;28;20469;-74
2023/03/14 01:14:57;;;;;;;15.32;4.15;;;10.60;99.90;;;;;;5062301;28;20021;-72
2023/03/14 01:17:22;;;;;;;16.45;4.30;;;10.60;99.90;;;;;;5062353;28;20527;-75
2023/03/14 01:19:48;;;;;;;15.73;5.15;;;10.60;99.90;;;;;;5061053;28;20031;-75
2023/03/14 01:22:13;;;;;;;14.27;5.47;;;10.60;99.90;;;;;;5060170;28;20043;-76
2023/03/14 01:24:40;;;;;;;12.20;4.38;;;10.50;99.90;;;;;;5059567;28;20056;-74
2023/03/14 01:27:05;;;;;;;15.23;4.97;;;10.50;99.90;;;;;;5062008;28;20028;-76
2023/03/14 01:29:31;;;;;;;12.90;4.55;;;10.50;99.90;;;;;;5061900;28;20025;-76
2023/03/14 01:31:57;;;;;;;12.73;4.70;;;10.50;99.90;;;;;;5060508;28;20032;-74
2023/03/14 01:34:22;;;;;;;13.93;5.40;;;10.50;99.90;;;;;;5061232;28;20025;-75
2023/03/14 01:36:48;;;;;;;15.98;5.78;;;10.60;99.90;;;;;;5060474;28;20092;-76
2023/03/14 01:39:14;;;;;;;18.23;5.38;;;10.50;99.90;;;;;;5061954;28;20029;-74
2023/03/14 01:41:40;;;;;;;15.85;5.55;;;10.50;99.90;;;;;;5061808;28;20479;-75
2023/03/14 01:44:12;;;;;;;22.35;5.43;;;10.50;99.90;;;;;;5061566;28;20098;-75
2023/03/14 01:46:43;;;;;;;14.90;5.30;;;10.50;99.90;;;;;;5060242;28;20112;-75
2023/03/14 01:49:31;;;;;;;18.75;6.57;;;10.50;99.90;;;;;;5056922;28;20041;-74
2023/03/14 01:52:09;;;;;;;18.10;7.35;;;10.50;99.90;;;;;;5065905;28;20037;-75
2023/03/14 01:55:03;;;;;;;14.30;6.28;;;10.60;99.90;;;;;;5058898;28;20094;-74
2023/03/14 01:57:40;;;;;;;16.48;7.50;;;10.60;99.90;;;;;;5060676;28;20029;-74
2023/03/14 02:00:14;;;;;;;19.52;7.50;;;10.60;99.90;;;;;;5059259;28;20045;-76
2023/03/14 02:02:44;;;;;;;21.23;7.45;;;10.70;99.90;;;;;;5058932;28;20028;-74
2023/03/14 02:05:12;;;;;;;21.38;7.72;;;10.70;99.90;;;;;;5059100;28;20033;-76
2023/03/14 02:07:56;;;;;;;20.30;8.13;;;10.70;99.90;;;;;;5060986;28;20064;-74
2023/03/14 02:10:25;;;;;;;19.70;9.50;;;10.70;99.90;;;;;;5076532;28;20037;-76
2023/03/14 02:12:53;;;;;;;22.73;7.80;;;10.80;99.90;;;;;;5059832;28;20025;-74
2023/03/14 02:15:19;;;;;;;23.17;8.63;;;10.80;99.90;;;;;;5060785;28;20021;-76
2023/03/14 02:17:45;;;;;;;17.75;7.78;;;10.80;99.90;;;;;;5061179;28;20466;-75
2023/03/14 02:20:17;;;;;;;19.70;7.00;;;10.70;99.90;;;;;;5060431;28;20028;-76
2023/03/14 02:22:45;;;;;;;19.35;8.40;;;10.70;99.90;;;;;;5062002;28;20029;-72
2023/03/14 02:25:33;;;;;;;21.73;8.77;;;10.70;99.90;;;;;;5059646;28;20063;-75
2023/03/14 02:27:59;;;;;;;21.70;8.23;;;10.70;99.90;;;;;;5060976;28;20029;-74
2023/03/14 02:30:28;;;;;;;15.75;7.10;;;10.60;99.90;;;;;;5058578;28;20093;-76
2023/03/14 02:33:12;;;;;;;20.83;7.07;;;10.60;99.90;;;;;;5059445;28;20395;-74
2023/03/14 02:35:43;;;;;;;16.80;7.55;;;10.60;99.90;;;;;;5060995;28;21084;-73
2023/03/14 02:38:33;;;;;;;21.75;7.13;;;10.60;99.90;;;;;;5060129;28;20037;-79
2023/03/14 02:40:58;;;;;;;19.50;7.72;;;10.60;99.90;;;;;;5059787;28;20039;-74
2023/03/14 02:43:24;;;;;;;22.60;7.50;;;10.60;99.90;;;;;;5061477;28;20077;-74
2023/03/14 02:45:51;;;;;;;19.60;7.97;;;10.60;99.90;;;;;;5061148;28;20041;-75
2023/03/14 02:48:35;;;;;;;17.88;8.00;;;10.60;99.90;;;;;;5065024;28;20029;-77
2023/03/14 02:51:01;;;;;;;21.63;7.50;;;10.60;99.90;;;;;;5064852;28;20440;-74
2023/03/14 02:53:32;;;;;;;16.02;7.70;;;10.70;99.90;;;;;;5065206;28;20029;-75
2023/03/14 02:55:58;;;;;;;22.40;8.30;;;10.60;99.90;;;;;;5063657;28;20036;-74
2023/03/14 02:58:24;;;;;;;19.63;7.45;;;10.70;99.90;;;;;;5063821;28;20040;-73
2023/03/14 03:00:50;;;;;;;19.85;8.10;;;10.70;99.90;;;;;;5064342;28;20017;-75
2023/03/14 03:03:16;;;;;;;18.15;6.35;;;10.70;99.90;;;;;;5065203;28;20017;-77
2023/03/14 03:05:44;;;;;;;19.20;8.30;;;10.80;99.90;;;;;;5065017;28;20040;-75
2023/03/14 03:08:10;;;;;;;18.58;7.95;;;10.80;99.90;;;;;;5063680;28;20020;-76
2023/03/14 03:10:36;;;;;;;19.83;7.63;;;10.80;99.90;;;;;;5063584;28;20029;-74
2023/03/14 03:13:05;;;;;;;18.42;6.93;;;10.80;99.90;;;;;;5061255;28;20044;-75
2023/03/14 03:15:31;;;;;;;19.27;8.38;;;10.90;99.90;;;;;;5063182;28;20082;-74
2023/03/14 03:17:56;;;;;;;19.98;8.32;;;10.90;99.90;;;;;;5063907;28;20064;-73
2023/03/14 03:20:22;;;;;;;21.60;7.05;;;10.90;99.90;;;;;;5064620;28;20029;-75
2023/03/14 03:22:49;;;;;;;24.67;8.13;;;10.90;99.90;;;;;;5063361;28;20021;-76
2023/03/14 03:25:15;;;;;;;20.85;7.43;;;10.80;99.90;;;;;;5062754;28;20067;-75
2023/03/14 03:27:41;;;;;;;24.52;7.25;;;10.70;99.90;;;;;;5064370;28;20029;-74
2023/03/14 03:30:08;;;;;;;17.95;6.57;;;10.70;99.90;;;;;;5062794;28;20029;-73
2023/03/14 03:32:34;;;;;;;19.95;7.47;;;10.70;99.90;;;;;;5064217;28;20025;-72
2023/03/14 03:35:00;;;;;;;19.95;6.30;;;10.70;99.90;;;;;;5063192;28;20036;-76
2023/03/14 03:37:25;;;;;;;19.58;7.18;;;10.70;99.90;;;;;;5064284;28;20029;-72
2023/03/14 03:39:51;;;;;;;18.63;7.07;;;10.70;99.90;;;;;;5062752;28;20067;-73
2023/03/14 03:42:18;;;;;;;23.67;7.60;;;10.80;99.90;;;;;;5063033;28;20037;-74
2023/03/14 03:44:43;;;;;;;18.48;6.45;;;10.80;99.90;;;;;;5063997;28;20531;-74
2023/03/14 03:47:09;;;;;;;24.98;7.00;;;10.80;99.90;;;;;;5062617;28;20041;-76
2023/03/14 03:49:35;;;;;;;16.02;4.90;;;10.80;99.90;;;;;;5064293;28;20033;-76
2023/03/14 03:52:00;;;;;;;16.20;4.10;;;10.80;99.90;;;;;;5064078;28;20024;-75
2023/03/14 03:54:26;;;;;;;15.98;4.07;;;10.90;99.90;;;;;;5062917;28;20107;-76
2023/03/14 03:56:52;;;;;;;30.20;4.80;;;10.80;99.90;;;;;;5063682;28;20024;-75
2023/03/14 03:59:18;;;;;;;19.40;3.92;;;10.80;99.90;;;;;;5063725;28;20024;-75
2023/03/14 04:01:44;;;;;;;11.63;4.10;;;10.70;99.90;;;;;;5062575;28;20029;-72
2023/03/14 04:04:10;;;;;;;9.27;3.38;;;10.60;99.90;;;;;;5062304;28;20037;-75
2023/03/14 04:06:37;;;;;;;8.48;3.08;;;10.40;99.90;;;;;;5063425;28;20088;-75
2023/03/14 04:09:02;;;;;;;9.40;3.28;;;10.30;99.90;;;;;;5063868;28;20037;-76
2023/03/14 04:11:28;;;;;;;11.85;3.75;;;10.10;99.90;;;;;;5063738;28;20092;-75
2023/03/14 04:13:54;;;;;;;15.70;3.50;;;10.00;99.90;;;;;;5063974;28;20025;-75
2023/03/14 04:16:22;;;;;;;10.75;3.35;;;9.90;99.90;;;;;;5062084;28;20143;-76
2023/03/14 04:18:48;;;;;;;11.95;3.90;;;9.80;99.90;;;;;;5062275;28;20025;-78
2023/03/14 04:21:14;;;;;;;11.23;3.47;;;9.70;99.90;;;;;;5061637;28;20031;-76
2023/03/14 04:23:40;;;;;;;12.80;3.30;;;9.70;99.90;;;;;;5063831;28;20028;-73
2023/03/14 04:26:06;;;;;;;9.45;3.30;;;9.60;99.90;;;;;;5061731;28;20413;-76
2023/03/14 04:28:31;;;;;;;9.75;3.40;;;9.50;99.90;;;;;;5062480;28;20059;-76
2023/03/14 04:30:57;;;;;;;10.02;3.45;;;9.50;99.90;;;;;;5063092;28;20557;-71
2023/03/14 04:33:23;;;;;;;17.60;3.75;;;9.40;99.90;;;;;;5062972;28;20021;-75
2023/03/14 04:35:50;;;;;;;11.00;3.70;;;9.40;99.90;;;;;;5061814;28;20025;-75
2023/03/14 04:38:16;;;;;;;10.90;3.92;;;9.40;99.90;;;;;;5063433;28;20025;-75
2023/03/14 04:40:42;;;;;;;12.10;4.18;;;9.40;99.90;;;;;;5061601;28;20029;-75
2023/03/14 04:43:12;;;;;;;14.65;4.53;;;9.50;99.90;;;;;;5061995;28;20041;-75
2023/03/14 04:45:41;;;;;;;12.15;4.03;;;9.40;99.90;;;;;;5061828;28;20047;-75
2023/03/14 04:48:07;;;;;;;15.52;4.75;;;9.40;99.90;;;;;;5062868;28;20675;-74
2023/03/14 04:50:33;;;;;;;17.98;5.50;;;9.50;99.90;;;;;;5061503;28;20035;-75
2023/03/14 04:52:58;;;;;;;15.32;5.15;;;9.50;99.90;;;;;;5063257;28;20124;-71
2023/03/14 04:55:24;;;;;;;13.38;5.25;;;9.50;99.90;;;;;;5061665;28;20025;-73
2023/03/14 04:57:49;;;;;;;17.27;5.78;;;9.50;99.90;;;;;;5061644;28;20037;-73
2023/03/14 05:00:18;;;;;;;15.48;4.68;;;9.60;99.90;;;;;;5062897;28;20044;-76
2023/03/14 05:02:44;;;;;;;14.32;4.78;;;9.60;99.90;;;;;;5061847;28;20113;-73
2023/03/14 05:05:10;;;;;;;13.90;4.43;;;9.60;99.90;;;;;;5063305;28;20397;-76
2023/03/14 05:07:36;;;;;;;7.32;3.75;;;9.60;99.90;;;;;;5059681;28;20025;-76
2023/03/14 05:10:01;;;;;;;12.70;4.78;;;9.60;99.90;;;;;;5059954;28;20124;-74
2023/03/14 05:12:27;;;;;;;10.60;4.32;;;9.60;99.90;;;;;;5061723;28;20133;-76
2023/03/14 05:14:53;;;;;;;16.50;4.03;;;9.50;99.90;;;;;;5062344;28;20029;-74
2023/03/14 05:17:19;;;;;;;10.80;5.13;;;9.50;99.90;;;;;;5062467;28;20021;-75
2023/03/14 05:19:44;;;;;;;18.77;5.32;;;9.50;99.90;;;;;;5060366;28;20451;-72
2023/03/14 05:22:10;;;;;;;13.90;4.30;;;9.50;99.90;;;;;;5060155;28;20040;-75
2023/03/14 05:24:36;;;;;;;16.42;4.45;;;9.50;99.90;;;;;;5060640;28;20049;-72
2023/03/14 05:27:02;;;;;;;16.27;4.53;;;9.50;99.90;;;;;;5062178;28;20575;-74
2023/03/14 05:29:28;;;;;;;12.77;4.68;;;9.50;99.90;;;;;;5061414;28;20024;-73
2023/03/14 05:31:54;;;;;;;12.98;4.13;;;9.50;99.90;;;;;;5060849;28;20040;-71
2023/03/14 05:34:19;;;;;;;10.35;3.22;;;9.40;99.90;;;;;;5061146;28;20041;-73
2023/03/14 05:36:45;;;;;;;8.13;3.88;;;9.40;99.90;;;;;;5062071;28;20024;-70
2023/03/14 05:39:11;;;;;;;10.50;3.97;;;9.30;99.90;;;;;;5062645;28;20033;-75
2023/03/14 05:41:36;;;;;;;15.35;3.83;;;9.40;99.90;;;;;;5062085;28;20017;-72
2023/03/14 05:44:02;;;;;;;14.38;3.92;;;9.30;99.90;;;;;;5061802;28;20036;-73
2023/03/14 05:46:30;;;;;;;19.60;3.72;;;9.30;99.90;;;;;;5060259;28;20040;-75
2023/03/14 05:48:56;;;;;;;15.38;3.83;;;9.30;99.90;;;;;;5060220;28;20053;-74
2023/03/14 05:51:22;;;;;;;13.85;3.83;;;9.30;99.90;;;;;;5059574;28;20029;-75
2023/03/14 05:53:48;;;;;;;10.07;3.83;;;9.30;99.90;;;;;;5059136;28;20111;-73
2023/03/14 05:56:13;;;;;;;13.00;3.92;;;9.30;99.90;;;;;;5057941;28;20056;-76
2023/03/14 05:58:39;;;;;;;10.73;3.35;;;9.30;99.90;;;;;;5059893;28;20025;-75
2023/03/14 06:01:05;;;;;;;17.58;4.00;;;9.40;99.90;;;;;;5061854;28;20033;-73
2023/03/14 06:03:32;;;;;;;14.85;3.72;;;9.40;99.90;;;;;;5056638;28;20033;-75
2023/03/14 06:05:57;;;;;;;11.98;3.25;;;9.40;99.90;;;;;;5059251;28;20462;-73
2023/03/14 06:08:23;;;;;;;7.90;3.13;;;9.40;99.90;;;;;;5061638;28;20048;-71
2023/03/14 06:10:49;;;;;;;7.78;2.60;;;9.40;99.90;;;;;;5061552;28;20025;-74
2023/03/14 06:13:15;;;;;;;14.95;3.72;;;9.40;99.90;;;;;;5061730;28;20116;-74
2023/03/14 06:15:41;;;;;;;18.15;3.20;;;9.50;99.90;;;;;;5055041;28;20021;-74
2023/03/14 06:18:07;;;;;;;11.52;3.50;;;9.50;99.90;;;;;;5059546;28;20112;-76
2023/03/14 06:20:33;;;;;;;16.45;3.28;;;9.50;99.90;;;;;;5059188;28;20117;-75
2023/03/14 06:22:58;;;;;;;10.18;2.90;;;9.50;99.90;;;;;;5058890;28;20036;-73
2023/03/14 06:25:24;;;;;;;6.10;2.58;;;9.50;99.90;;;;;;5059937;28;20048;-73
2023/03/14 06:27:50;;;;;;;11.35;2.97;;;9.60;99.90;;;;;;5057928;28;20188;-74
2023/03/14 06:30:16;;;;;;;11.27;2.97;;;9.60;99.90;;;;;;5061067;28;20031;-76
2023/03/14 06:32:42;;;;;;;15.68;3.13;;;9.60;99.90;;;;;;5058064;28;20461;-74
2023/03/14 06:35:08;;;;;;;13.55;2.95;;;9.60;99.90;;;;;;5059863;28;20098;-77
2023/03/14 06:37:34;;;;;;;14.88;3.30;;;9.60;99.90;;;;;;5059901;28;20037;-73
2023/03/14 06:39:59;;;;;;;12.30;2.85;;;9.60;99.90;;;;;;5059848;28;20486;-73
2023/03/14 06:42:25;;;;;;;8.38;2.55;;;9.70;99.90;;;;;;5060770;28;20072;-73
2023/03/14 06:44:51;;;;;;;10.35;2.40;;;9.60;99.90;;;;;;5059461;28;20033;-75
2023/03/14 06:47:16;;;;;;;8.73;2.28;;;9.60;99.90;;;;;;5059702;28;20110;-73
2023/03/14 06:49:42;;;;;;;11.65;2.33;;;9.60;99.90;;;;;;5061394;28;20029;-75
2023/03/14 06:52:07;;;;;;;10.77;2.20;;;9.70;99.90;;;;;;5061172;28;20541;-75
2023/03/14 06:54:33;;;;;;;7.63;2.20;;;9.60;99.90;;;;;;5061001;28;20029;-74
2023/03/14 06:56:58;;;;;;;9.65;2.30;;;9.70;99.90;;;;;;5059710;28;20063;-76
2023/03/14 06:59:24;;;;;;;10.15;2.38;;;9.60;99.90;;;;;;5061000;28;20029;-72
2023/03/14 07:01:50;;;;;;;7.13;2.47;;;9.60;99.90;;;;;;5059119;28;20021;-72
2023/03/14 07:04:17;;;;;;;9.95;2.20;;;9.70;99.90;;;;;;5060898;28;20021;-74
2023/03/14 07:06:47;;;;;;;11.77;2.58;;;9.70;99.90;;;;;;5061006;28;20415;-72
2023/03/14 07:09:14;;;;;;;11.23;2.60;;;9.70;99.90;;;;;;5060617;28;20029;-71
2023/03/14 07:11:39;;;;;;;10.65;2.75;;;9.70;99.90;;;;;;5059725;28;20182;-72
2023/03/14 07:14:05;;;;;;;8.68;2.50;;;9.70;99.90;;;;;;5060607;28;20029;-71
2023/03/14 07:16:32;;;;;;;8.27;1.92;;;9.80;99.90;;;;;;5059504;28;20059;-74
2023/03/14 07:18:59;;;;;;;5.38;2.20;;;9.80;99.90;;;;;;5057131;28;20040;-76
2023/03/14 07:21:25;;;;;;;9.32;2.78;;;9.80;99.90;;;;;;5059824;28;20079;-75
2023/03/14 07:23:50;;;;;;;12.20;2.70;;;9.90;99.90;;;;;;5059563;28;20029;-75
2023/03/14 07:26:16;;;;;;;16.77;3.15;;;9.90;99.90;;;;;;5060731;28;20052;-72
2023/03/14 07:28:42;;;;;;;11.48;2.45;;;10.00;99.90;;;;;;5059367;28;20104;-72
2023/03/14 07:31:07;;;;;;;11.40;3.15;;;10.00;99.90;;;;;;5060734;28;20025;-74
2023/03/14 07:33:33;;;;;;;10.15;2.63;;;10.00;99.90;;;;;;5061582;28;20040;-74
2023/03/14 07:35:59;;;;;;;9.45;2.83;;;10.10;99.90;;;;;;5058316;28;20122;-75
2023/03/14 07:38:25;;;;;;;12.73;3.28;;;10.00;99.90;;;;;;5061803;28;20484;-73
2023/03/14 07:40:50;;;;;;;8.93;3.13;;;10.10;99.90;;;;;;5064311;28;20021;-75
2023/03/14 07:43:16;;;;;;;12.80;3.10;;;10.10;99.90;;;;;;5064581;28;20033;-74
2023/03/14 07:45:45;;;;;;;11.70;3.35;;;10.10;99.90;;;;;;5063656;28;20033;-72
2023/03/14 07:48:11;;;;;;;12.85;3.47;;;10.10;99.90;;;;;;5064847;28;20057;-74
2023/03/14 07:50:36;;;;;;;16.80;3.42;;;10.10;99.90;;;;;;5063008;28;20036;-75
2023/03/14 07:53:02;;;;;;;10.65;3.72;;;10.10;99.90;;;;;;5063909;28;20037;-73
2023/03/14 07:55:27;;;;;;;9.25;2.90;;;10.10;99.90;;;;;;5062984;28;20029;-74
2023/03/14 07:57:53;;;;;;;16.05;3.80;;;10.20;99.90;;;;;;5063977;28;20052;-74
2023/03/14 08:00:19;;;;;;;14.52;3.53;;;10.20;99.90;;;;;;5060690;28;20032;-76
2023/03/14 08:02:45;;;;;;;12.13;2.92;;;10.20;99.90;;;;;;5062089;28;20071;-72
2023/03/14 08:05:12;;;;;;;16.60;4.00;;;10.20;99.90;;;;;;5062375;28;20037;-72
2023/03/14 08:07:37;;;;;;;13.25;4.20;;;10.10;99.90;;;;;;5063600;28;20040;-73
2023/03/14 08:10:04;;;;;;;17.08;4.13;;;10.10;99.90;;;;;;5063596;28;20025;-73
2023/03/14 08:12:30;;;;;;;20.65;5.13;;;10.00;99.90;;;;;;5063619;28;20021;-72
2023/03/14 08:14:56;;;;;;;13.93;4.32;;;9.90;99.90;;;;;;5059840;28;20043;-72
2023/03/14 08:17:21;;;;;;;18.67;4.85;;;9.90;99.90;;;;;;5061676;28;20029;-73
2023/03/14 08:19:47;;;;;;;17.92;4.40;;;9.80;99.90;;;;;;5062878;28;20029;-74
2023/03/14 08:22:13;;;;;;;18.33;5.03;;;9.70;99.90;;;;;;5061741;28;20036;-74
2023/03/14 08:24:38;;;;;;;12.15;4.25;;;9.70;99.90;;;;;;5063524;28;20041;-74
2023/03/14 08:27:04;;;;;;;16.67;4.22;;;9.70;99.90;;;;;;5062217;28;20107;-73
2023/03/14 08:29:29;;;;;;;13.60;4.32;;;9.70;99.90;;;;;;5057989;28;20025;-75
2023/03/14 08:31:55;;;;;;;16.75;4.38;;;9.70;99.90;;;;;;5058096;28;20021;-73
2023/03/14 08:34:21;;;;;;;13.02;3.60;;;9.70;99.90;;;;;;5062892;28;20140;-73
2023/03/14 08:36:46;;;;;;;17.90;4.30;;;9.70;99.90;;;;;;5063208;28;20060;-71
2023/03/14 08:39:12;;;;;;;26.23;4.47;;;9.70;99.90;;;;;;5062235;28;20028;-74
2023/03/14 08:41:40;;;;;;;17.50;4.10;;;9.70;99.90;;;;;;5059842;28;20025;-72
2023/03/14 08:44:07;;;;;;;17.25;4.15;;;9.60;99.90;;;;;;5063250;28;20025;-73
2023/03/14 08:46:33;;;;;;;12.52;4.30;;;9.60;99.90;;;;;;5057972;28;20053;-73
2023/03/14 08:48:58;;;;;;;10.63;3.30;;;9.60;99.90;;;;;;5059987;28;20079;-74
2023/03/14 08:51:24;;;;;;;13.88;3.95;;;9.60;99.90;;;;;;5055851;28;20082;-74
2023/03/14 08:53:50;;;;;;;11.50;3.50;;;9.50;99.90;;;;;;5059090;28;20037;-75
2023/03/14 08:56:16;;;;;;;10.10;2.83;;;9.50;99.90;;;;;;5063357;28;20546;-74
2023/03/14 08:58:51;;;;;;;8.88;2.65;;;9.50;99.90;;;;;;5061423;28;20032;-73
2023/03/14 09:01:19;;;;;;;8.10;1.77;;;9.40;99.90;;;;;;5056740;28;20025;-75
2023/03/14 09:03:46;;;;;;;6.57;2.17;;;9.00;99.90;;;;;;5056956;28;20989;-71
2023/03/14 09:06:13;;;;;;;6.72;1.83;;;8.10;99.90;;;;;;5055598;28;20048;-74
2023/03/14 09:08:39;;;;;;;7.78;2.67;;;7.40;99.90;;;;;;5051436;28;20555;-73
2023/03/14 09:11:08;;;;;;;10.57;2.85;;;7.00;99.90;;;;;;5052435;28;20020;-71
2023/03/14 09:13:35;;;;;;;8.90;2.58;;;6.90;99.90;;;;;;5057735;28;20526;-72
2023/03/14 09:16:00;;;;;;;5.88;1.92;;;6.70;99.90;;;;;;5055057;28;20599;-73
2023/03/14 09:18:26;;;;;;;10.73;2.67;;;6.70;99.90;;;;;;5059178;28;20033;-72
2023/03/14 09:20:52;;;;;;;5.97;1.73;;;6.50;99.90;;;;;;5056022;28;20028;-71
2023/03/14 09:23:18;;;;;;;10.70;2.08;;;6.30;99.90;;;;;;5059622;28;20095;-73
2023/03/14 09:25:43;;;;;;;9.35;1.80;;;6.20;99.90;;;;;;5060781;28;20053;-71
2023/03/14 09:28:09;;;;;;;9.68;2.60;;;6.00;99.90;;;;;;5059472;28;20490;-72
2023/03/14 09:30:34;;;;;;;11.48;2.40;;;6.10;99.90;;;;;;5059688;28;20048;-71
2023/03/14 09:33:00;;;;;;;6.78;1.42;;;6.00;99.90;;;;;;5059896;28;20048;-74
2023/03/14 09:35:25;;;;;;;10.13;1.92;;;5.90;99.90;;;;;;5060926;28;20025;-71
2023/03/14 09:37:51;;;;;;;5.43;1.55;;;5.70;99.90;;;;;;5061063;28;20048;-72
2023/03/14 09:40:21;;;;;;;3.03;1.38;;;5.60;99.90;;;;;;5057684;28;20033;-72
2023/03/14 09:42:54;;;;;;;5.22;1.40;;;5.50;99.90;;;;;;5057322;28;20097;-72
2023/03/14 09:45:27;;;;;;;4.73;2.00;;;5.30;99.90;;;;;;5061053;28;20083;-71
2023/03/14 09:47:55;;;;;;;1.20;0.70;;;5.20;99.90;;;;;;5062218;28;20256;-71
2023/03/14 09:50:21;;;;;;;3.70;0.80;;;5.10;99.90;;;;;;5062044;28;20021;-72
2023/03/14 09:52:51;;;;;;;0.88;0.50;;;5.00;99.90;;;;;;5060376;28;20493;-72
2023/03/14 09:55:21;;;;;;;2.90;0.43;;;4.90;99.90;;;;;;5056888;28;20059;-75
2023/03/14 09:57:48;;;;;;;1.52;0.63;;;4.80;99.90;;;;;;5061583;28;20031;-73
2023/03/14 10:00:22;;;;;;;1.80;0.90;;;4.80;99.90;;;;;;5058666;28;20063;-72
2023/03/14 10:03:13;;;;;;;1.45;0.80;;;4.70;99.90;;;;;;5059087;28;20133;-76
2023/03/14 10:05:42;;;;;;;2.15;0.60;;;4.50;99.90;;;;;;5059349;28;20053;-73
2023/03/14 10:08:13;;;;;;;2.83;0.60;;;4.40;99.90;;;;;;5056925;28;20048;-74
2023/03/14 10:10:39;;;;;;;1.95;0.50;;;4.40;99.90;;;;;;5060491;28;20032;-73
2023/03/14 10:13:10;;;;;;;1.73;0.50;;;4.40;99.90;;;;;;5059645;28;20110;-76
2023/03/14 10:15:37;;;;;;;3.60;0.80;;;4.50;99.90;;;;;;5058809;28;20032;-75
2023/03/14 10:18:11;;;;;;;2.20;0.57;;;4.50;99.90;;;;;;5060193;28;20036;-73
2023/03/14 10:20:38;;;;;;;;;;;4.60;99.90;;;;;;5060196;28;20056;-73
2023/03/14 10:23:11;;;;;;;3.92;0.98;;;4.70;99.90;;;;;;5059870;28;19905;-74
2023/03/14 10:25:42;;;;;;;4.70;0.88;;;4.70;99.90;;;;;;5060057;28;20049;-74
2023/03/14 10:28:24;;;;;;;3.53;0.70;;;4.70;99.90;;;;;;5059411;28;20068;-74
2023/03/14 10:30:50;;;;;;;1.73;0.70;;;4.70;99.90;;;;;;5060332;28;20029;-74
2023/03/14 10:33:22;;;;;;;2.40;0.70;;;4.80;99.90;;;;;;5059506;28;20021;-73
2023/03/14 10:36:00;;;;;;;5.32;0.63;;;4.80;99.90;;;;;;5058782;28;20043;-74
2023/03/14 10:38:28;;;;;;;1.92;0.82;;;5.00;99.90;;;;;;5059852;28;20033;-74
2023/03/14 10:40:55;;;;;;;7.22;2.13;;;5.00;99.90;;;;;;5059745;28;20025;-75
2023/03/14 10:43:27;;;;;;;12.85;4.75;;;5.10;99.90;;;;;;5061127;28;20025;-75
2023/03/14 10:46:05;;;;;;;14.43;5.95;;;5.10;99.90;;;;;;5060470;28;20474;-74
2023/03/14 10:48:37;;;;;;;7.00;1.70;;;5.00;99.90;;;;;;5060659;28;20478;-76
2023/03/14 10:51:08;;;;;;;7.88;1.70;;;5.00;99.90;;;;;;5059849;28;20036;-76
2023/03/14 10:53:55;;;;;;;6.32;2.10;;;5.00;99.90;;;;;;5060904;28;20027;-76
2023/03/14 10:56:24;;;;;;;7.70;1.15;;;5.00;99.90;;;;;;5060696;28;20040;-75
2023/03/14 10:58:59;;;;;;;6.53;1.52;;;5.10;99.90;;;;;;5060942;28;20108;-74
2023/03/14 11:01:53;;;;;;;5.80;1.20;;;5.10;99.90;;;;;;5061117;28;20044;-75
2023/03/14 11:04:54;;;;;;;9.73;1.65;;;5.00;99.90;;;;;;5055427;28;20044;-76
2023/03/14 11:07:27;;;;;;;4.95;0.98;;;5.00;99.90;;;;;;5053685;28;20048;-74
2023/03/14 11:09:52;;;;;;;6.57;1.23;;;5.00;99.90;;;;;;5059077;28;20053;-75
2023/03/14 11:12:18;;;;;;;6.35;1.20;;;5.10;99.90;;;;;;5061639;28;20403;-77
2023/03/14 11:14:47;;;;;;;6.53;2.38;;;5.10;99.90;;;;;;5062442;28;20127;-77
2023/03/14 11:17:26;;;;;;;11.90;1.55;;;5.10;99.90;;;;;;5064097;28;20017;-76
2023/03/14 11:20:11;;;;;;;9.23;1.70;;;5.10;99.90;;;;;;5062053;28;20083;-73
2023/03/14 11:23:12;;;;;;;10.88;2.10;;;5.20;99.90;;;;;;5061988;28;20024;-75
2023/03/14 11:25:52;;;;;;;9.45;1.98;;;5.30;99.90;;;;;;5064043;28;20067;-74
2023/03/14 11:28:35;;;;;;;14.55;1.77;;;5.30;99.90;;;;;;5063191;28;20036;-74
2023/03/14 11:31:18;;;;;;;11.32;2.25;;;5.50;99.90;;;;;;5062770;28;20048;-74
2023/03/14 11:34:24;;;;;;;18.67;2.13;;;5.60;99.90;;;;;;5064237;28;20025;-74
2023/03/14 11:37:24;;;;;;;11.38;1.75;;;5.70;99.90;;;;;;5061995;28;20702;-76
2023/03/14 11:40:00;;;;;;;19.48;2.03;;;6.10;99.90;;;;;;5059652;28;20065;-72
2023/03/14 11:42:27;;;;;;;19.10;1.80;;;6.20;99.90;;;;;;5063607;28;20013;-73
2023/03/14 11:44:55;;;;;;;8.98;2.00;;;6.30;99.90;;;;;;5062974;28;20064;-72
2023/03/14 11:47:28;;;;;;;30.17;8.75;;;6.50;99.90;;;;;;5062723;28;20028;-74
2023/03/14 11:49:57;;;;;;;31.05;8.73;;;6.60;99.90;;;;;;5059481;28;20036;-71
2023/03/14 11:52:32;;;;;;;27.77;5.68;;;6.60;99.90;;;;;;5061251;28;20032;-71
2023/03/14 11:55:07;;;;;;;18.48;2.90;;;6.70;99.90;;;;;;5060329;28;20028;-73
2023/03/14 11:57:33;;;;;;;20.98;2.78;;;6.70;99.90;;;;;;5062449;28;20025;-71
2023/03/14 12:00:16;;;;;;;22.48;3.22;;;6.50;99.90;;;;;;5062303;28;20104;-73
2023/03/14 12:03:19;;;;;;;20.45;2.58;;;6.50;99.90;;;;;;5063291;28;20079;-73
2023/03/14 12:05:59;;;;;;;20.42;2.60;;;6.50;99.90;;;;;;5062238;28;20047;-73
2023/03/14 12:08:51;;;;;;;25.35;2.90;;;6.40;99.90;;;;;;5061852;28;20036;-72
2023/03/14 12:11:48;;;;;;;24.98;3.15;;;6.30;99.90;;;;;;5059988;28;20055;-73
2023/03/14 12:14:18;;;;;;;27.08;3.15;;;6.30;99.90;;;;;;5063103;28;20119;-77
2023/03/14 12:16:48;;;;;;;25.88;2.88;;;6.20;99.90;;;;;;5062907;28;20445;-74
2023/03/14 12:19:20;;;;;;;33.80;3.40;;;6.10;99.90;;;;;;5062152;28;20025;-76
2023/03/14 12:21:58;;;;;;;20.77;3.22;;;6.10;99.90;;;;;;5061430;28;20029;-74
2023/03/14 12:24:27;;;;;;;26.13;3.15;;;6.10;99.90;;;;;;5058428;28;20105;-73
2023/03/14 12:26:56;;;;;;;23.60;2.95;;;6.00;99.90;;;;;;5057727;28;20672;-73
2023/03/14 12:29:22;;;;;;;24.17;2.65;;;6.20;99.90;;;;;;5059730;28;20024;-71
2023/03/14 12:32:05;;;;;;;26.40;2.97;;;6.40;99.90;;;;;;5061106;28;20520;-76
2023/03/14 12:34:35;;;;;;;14.07;2.33;;;6.50;99.90;;;;;;5061587;28;20044;-70
2023/03/14 12:37:22;;;;;;;25.17;3.58;;;6.50;99.90;;;;;;5061029;28;20027;-74
2023/03/14 12:39:58;;;;;;;18.08;2.65;;;6.60;99.90;;;;;;5055039;28;20092;-74
2023/03/14 12:42:30;;;;;;;24.63;2.70;;;6.80;99.90;;;;;;5059885;28;20083;-72
2023/03/14 12:45:22;;;;;;;11.40;2.28;;;7.20;99.90;;;;;;5061061;28;20485;-75
2023/03/14 12:47:54;;;;;;;17.55;2.63;;;7.80;99.90;;;;;;5061930;28;20029;-72
2023/03/14 12:50:55;;;;;;;12.70;1.80;;;8.00;99.90;;;;;;5060738;28;20035;-73
2023/03/14 12:53:33;;;;;;;19.45;2.40;;;8.20;99.90;;;;;;5055742;28;20056;-72
2023/03/14 12:56:26;;;;;;;12.90;1.65;;;8.00;99.90;;;;;;5060208;28;20097;-74